sensor_id;sensor_type;location;lat;lon;timestamp;P1;durP1;ratioP1;P2;durP2;ratioP2
47161;SDS011;32921;53.256;8.198;2022-08-14T00:01:17;11.00;;;6.28;;
47161;SDS011;32921;53.256;8.198;2022-08-14T00:03:42;11.93;;;6.30;;
47161;SDS011;32921;53.256;8.198;2022-08-14T00:06:08;14.32;;;6.25;;
47161;SDS011;32921;53.256;8.198;2022-08-14T00:08:34;11.65;;;6.20;;
47161;SDS011;32921;53.256;8.198;2022-08-14T00:10:59;11.88;;;5.90;;
47161;SDS011;32921;53.256;8.198;2022-08-14T00:13:25;12.90;;;5.97;;
47161;SDS011;32921;53.256;8.198;2022-08-14T00:15:54;10.05;;;6.03;;
47161;SDS011;32921;53.256;8.198;2022-08-14T00:18:21;10.98;;;6.20;;
47161;SDS011;32921;53.256;8.198;2022-08-14T00:20:48;8.73;;;6.50;;
47161;SDS011;32921;53.256;8.198;2022-08-14T00:23:15;9.40;;;6.07;;
47161;SDS011;32921;53.256;8.198;2022-08-14T00:25:42;9.45;;;5.97;;
47161;SDS011;32921;53.256;8.198;2022-08-14T00:28:09;13.18;;;6.45;;
47161;SDS011;32921;53.256;8.198;2022-08-14T00:30:36;8.65;;;6.00;;
47161;SDS011;32921;53.256;8.198;2022-08-14T00:33:02;9.25;;;5.65;;
47161;SDS011;32921;53.256;8.198;2022-08-14T00:35:28;8.77;;;5.78;;
47161;SDS011;32921;53.256;8.198;2022-08-14T00:37:55;12.95;;;6.50;;
47161;SDS011;32921;53.256;8.198;2022-08-14T00:40:20;10.25;;;6.57;;
47161;SDS011;32921;53.256;8.198;2022-08-14T00:42:46;10.93;;;6.00;;
47161;SDS011;32921;53.256;8.198;2022-08-14T00:45:13;10.60;;;6.00;;
47161;SDS011;32921;53.256;8.198;2022-08-14T00:47:43;8.13;;;6.07;;
47161;SDS011;32921;53.256;8.198;2022-08-14T00:50:10;10.75;;;6.10;;
47161;SDS011;32921;53.256;8.198;2022-08-14T00:52:38;11.82;;;5.63;;
47161;SDS011;32921;53.256;8.198;2022-08-14T00:55:04;9.27;;;5.40;;
47161;SDS011;32921;53.256;8.198;2022-08-14T00:57:32;10.05;;;5.68;;
47161;SDS011;32921;53.256;8.198;2022-08-14T00:59:59;8.98;;;5.80;;
47161;SDS011;32921;53.256;8.198;2022-08-14T01:02:26;11.00;;;5.45;;
47161;SDS011;32921;53.256;8.198;2022-08-14T01:04:53;9.80;;;5.35;;
47161;SDS011;32921;53.256;8.198;2022-08-14T01:07:22;7.63;;;5.20;;
47161;SDS011;32921;53.256;8.198;2022-08-14T01:09:50;8.60;;;5.05;;
47161;SDS011;32921;53.256;8.198;2022-08-14T01:12:18;7.93;;;5.45;;
47161;SDS011;32921;53.256;8.198;2022-08-14T01:14:45;10.80;;;5.40;;
47161;SDS011;32921;53.256;8.198;2022-08-14T01:17:11;8.65;;;5.25;;
47161;SDS011;32921;53.256;8.198;2022-08-14T01:19:37;9.80;;;5.10;;
47161;SDS011;32921;53.256;8.198;2022-08-14T01:22:22;12.90;;;5.38;;
47161;SDS011;32921;53.256;8.198;2022-08-14T01:24:47;11.63;;;5.15;;
47161;SDS011;32921;53.256;8.198;2022-08-14T01:27:16;14.45;;;6.07;;
47161;SDS011;32921;53.256;8.198;2022-08-14T01:29:48;7.82;;;5.30;;
47161;SDS011;32921;53.256;8.198;2022-08-14T01:32:17;13.73;;;5.32;;
47161;SDS011;32921;53.256;8.198;2022-08-14T01:34:46;11.40;;;5.47;;
47161;SDS011;32921;53.256;8.198;2022-08-14T01:37:13;11.68;;;5.43;;
47161;SDS011;32921;53.256;8.198;2022-08-14T01:39:39;7.15;;;4.65;;
47161;SDS011;32921;53.256;8.198;2022-08-14T01:42:05;9.43;;;5.20;;
47161;SDS011;32921;53.256;8.198;2022-08-14T01:44:30;7.45;;;5.20;;
47161;SDS011;32921;53.256;8.198;2022-08-14T01:46:57;13.07;;;5.28;;
47161;SDS011;32921;53.256;8.198;2022-08-14T01:49:23;11.00;;;5.40;;
47161;SDS011;32921;53.256;8.198;2022-08-14T01:51:50;14.50;;;6.18;;
47161;SDS011;32921;53.256;8.198;2022-08-14T01:54:20;13.27;;;5.80;;
47161;SDS011;32921;53.256;8.198;2022-08-14T01:56:47;13.32;;;5.75;;
47161;SDS011;32921;53.256;8.198;2022-08-14T02:01:42;11.95;;;6.32;;
47161;SDS011;32921;53.256;8.198;2022-08-14T02:04:09;12.95;;;5.63;;
47161;SDS011;32921;53.256;8.198;2022-08-14T02:06:35;13.65;;;5.93;;
47161;SDS011;32921;53.256;8.198;2022-08-14T02:09:05;8.60;;;5.90;;
47161;SDS011;32921;53.256;8.198;2022-08-14T02:11:31;8.93;;;5.53;;
47161;SDS011;32921;53.256;8.198;2022-08-14T02:14:02;10.43;;;6.32;;
47161;SDS011;32921;53.256;8.198;2022-08-14T02:16:31;9.10;;;6.38;;
47161;SDS011;32921;53.256;8.198;2022-08-14T02:19:01;11.88;;;7.05;;
47161;SDS011;32921;53.256;8.198;2022-08-14T02:21:29;10.23;;;6.45;;
47161;SDS011;32921;53.256;8.198;2022-08-14T02:23:57;8.77;;;6.70;;
47161;SDS011;32921;53.256;8.198;2022-08-14T02:26:35;11.18;;;6.63;;
47161;SDS011;32921;53.256;8.198;2022-08-14T02:29:07;12.15;;;6.32;;
47161;SDS011;32921;53.256;8.198;2022-08-14T02:31:36;12.48;;;6.43;;
47161;SDS011;32921;53.256;8.198;2022-08-14T02:36:38;12.32;;;7.75;;
47161;SDS011;32921;53.256;8.198;2022-08-14T02:39:09;13.25;;;6.93;;
47161;SDS011;32921;53.256;8.198;2022-08-14T02:41:35;15.02;;;6.82;;
47161;SDS011;32921;53.256;8.198;2022-08-14T02:44:02;7.53;;;6.00;;
47161;SDS011;32921;53.256;8.198;2022-08-14T02:46:29;8.45;;;6.30;;
47161;SDS011;32921;53.256;8.198;2022-08-14T02:48:55;12.18;;;6.82;;
47161;SDS011;32921;53.256;8.198;2022-08-14T02:51:23;11.38;;;6.63;;
47161;SDS011;32921;53.256;8.198;2022-08-14T02:53:50;10.80;;;6.80;;
47161;SDS011;32921;53.256;8.198;2022-08-14T02:56:16;9.98;;;6.57;;
47161;SDS011;32921;53.256;8.198;2022-08-14T02:58:44;14.88;;;6.78;;
47161;SDS011;32921;53.256;8.198;2022-08-14T03:01:12;14.48;;;6.90;;
47161;SDS011;32921;53.256;8.198;2022-08-14T03:03:39;12.20;;;6.70;;
47161;SDS011;32921;53.256;8.198;2022-08-14T03:06:06;10.75;;;6.50;;
47161;SDS011;32921;53.256;8.198;2022-08-14T03:08:32;8.27;;;6.45;;
47161;SDS011;32921;53.256;8.198;2022-08-14T03:11:02;8.60;;;6.10;;
47161;SDS011;32921;53.256;8.198;2022-08-14T03:13:30;8.77;;;6.30;;
47161;SDS011;32921;53.256;8.198;2022-08-14T03:15:59;9.02;;;6.50;;
47161;SDS011;32921;53.256;8.198;2022-08-14T03:18:27;11.63;;;6.93;;
47161;SDS011;32921;53.256;8.198;2022-08-14T03:20:53;15.15;;;7.20;;
47161;SDS011;32921;53.256;8.198;2022-08-14T03:23:19;13.02;;;6.90;;
47161;SDS011;32921;53.256;8.198;2022-08-14T03:25:45;13.70;;;7.22;;
47161;SDS011;32921;53.256;8.198;2022-08-14T03:28:11;12.05;;;6.97;;
47161;SDS011;32921;53.256;8.198;2022-08-14T03:30:38;13.98;;;7.05;;
47161;SDS011;32921;53.256;8.198;2022-08-14T03:33:04;15.15;;;7.22;;
47161;SDS011;32921;53.256;8.198;2022-08-14T03:35:32;12.82;;;6.40;;
47161;SDS011;32921;53.256;8.198;2022-08-14T03:38:08;10.00;;;6.35;;
47161;SDS011;32921;53.256;8.198;2022-08-14T03:40:35;12.63;;;7.00;;
47161;SDS011;32921;53.256;8.198;2022-08-14T03:43:04;13.05;;;6.60;;
47161;SDS011;32921;53.256;8.198;2022-08-14T03:45:31;11.07;;;6.78;;
47161;SDS011;32921;53.256;8.198;2022-08-14T03:47:59;14.25;;;6.80;;
47161;SDS011;32921;53.256;8.198;2022-08-14T03:50:39;9.70;;;6.43;;
47161;SDS011;32921;53.256;8.198;2022-08-14T03:53:08;9.18;;;7.07;;
47161;SDS011;32921;53.256;8.198;2022-08-14T03:55:37;12.95;;;7.40;;
47161;SDS011;32921;53.256;8.198;2022-08-14T03:58:02;8.82;;;7.07;;
47161;SDS011;32921;53.256;8.198;2022-08-14T04:00:30;10.95;;;6.80;;
47161;SDS011;32921;53.256;8.198;2022-08-14T04:02:55;11.63;;;6.80;;
47161;SDS011;32921;53.256;8.198;2022-08-14T04:05:21;7.90;;;6.47;;
47161;SDS011;32921;53.256;8.198;2022-08-14T04:07:46;9.70;;;6.80;;
47161;SDS011;32921;53.256;8.198;2022-08-14T04:10:12;9.80;;;6.25;;
47161;SDS011;32921;53.256;8.198;2022-08-14T04:12:38;8.52;;;6.57;;
47161;SDS011;32921;53.256;8.198;2022-08-14T04:15:03;9.52;;;6.47;;
47161;SDS011;32921;53.256;8.198;2022-08-14T04:17:30;12.02;;;6.50;;
47161;SDS011;32921;53.256;8.198;2022-08-14T04:19:57;7.70;;;6.03;;
47161;SDS011;32921;53.256;8.198;2022-08-14T04:22:27;10.82;;;6.22;;
47161;SDS011;32921;53.256;8.198;2022-08-14T04:24:54;14.48;;;6.43;;
47161;SDS011;32921;53.256;8.198;2022-08-14T04:27:20;12.82;;;6.18;;
47161;SDS011;32921;53.256;8.198;2022-08-14T04:29:47;10.18;;;6.60;;
47161;SDS011;32921;53.256;8.198;2022-08-14T04:32:13;10.48;;;6.40;;
47161;SDS011;32921;53.256;8.198;2022-08-14T04:34:39;10.82;;;6.35;;
47161;SDS011;32921;53.256;8.198;2022-08-14T04:37:06;9.65;;;6.28;;
47161;SDS011;32921;53.256;8.198;2022-08-14T04:39:51;10.35;;;6.25;;
47161;SDS011;32921;53.256;8.198;2022-08-14T04:42:36;7.63;;;6.15;;
47161;SDS011;32921;53.256;8.198;2022-08-14T04:45:21;12.10;;;6.40;;
47161;SDS011;32921;53.256;8.198;2022-08-14T04:47:47;10.07;;;6.30;;
47161;SDS011;32921;53.256;8.198;2022-08-14T04:50:33;8.05;;;6.57;;
47161;SDS011;32921;53.256;8.198;2022-08-14T04:52:59;11.55;;;6.80;;
47161;SDS011;32921;53.256;8.198;2022-08-14T04:55:28;7.97;;;5.85;;
47161;SDS011;32921;53.256;8.198;2022-08-14T04:57:54;13.07;;;6.30;;
47161;SDS011;32921;53.256;8.198;2022-08-14T05:00:20;8.63;;;5.97;;
47161;SDS011;32921;53.256;8.198;2022-08-14T05:02:46;8.13;;;6.00;;
47161;SDS011;32921;53.256;8.198;2022-08-14T05:05:13;11.00;;;6.40;;
47161;SDS011;32921;53.256;8.198;2022-08-14T05:07:38;10.93;;;6.30;;
47161;SDS011;32921;53.256;8.198;2022-08-14T05:10:06;9.45;;;6.43;;
47161;SDS011;32921;53.256;8.198;2022-08-14T05:12:32;10.10;;;6.20;;
47161;SDS011;32921;53.256;8.198;2022-08-14T05:14:57;8.75;;;6.45;;
47161;SDS011;32921;53.256;8.198;2022-08-14T05:17:23;7.97;;;6.30;;
47161;SDS011;32921;53.256;8.198;2022-08-14T05:19:51;8.70;;;6.15;;
47161;SDS011;32921;53.256;8.198;2022-08-14T05:22:17;11.65;;;6.45;;
47161;SDS011;32921;53.256;8.198;2022-08-14T05:24:44;10.45;;;6.20;;
47161;SDS011;32921;53.256;8.198;2022-08-14T05:27:11;11.65;;;6.15;;
47161;SDS011;32921;53.256;8.198;2022-08-14T05:29:37;12.38;;;6.32;;
47161;SDS011;32921;53.256;8.198;2022-08-14T05:32:03;9.50;;;6.07;;
47161;SDS011;32921;53.256;8.198;2022-08-14T05:34:31;11.75;;;6.70;;
47161;SDS011;32921;53.256;8.198;2022-08-14T05:36:58;11.77;;;7.18;;
47161;SDS011;32921;53.256;8.198;2022-08-14T05:39:24;12.57;;;6.50;;
47161;SDS011;32921;53.256;8.198;2022-08-14T05:41:50;10.23;;;6.22;;
47161;SDS011;32921;53.256;8.198;2022-08-14T05:44:15;11.55;;;7.13;;
47161;SDS011;32921;53.256;8.198;2022-08-14T05:46:41;15.40;;;7.03;;
47161;SDS011;32921;53.256;8.198;2022-08-14T05:49:06;10.30;;;6.95;;
47161;SDS011;32921;53.256;8.198;2022-08-14T05:51:32;11.43;;;7.03;;
47161;SDS011;32921;53.256;8.198;2022-08-14T05:53:58;9.10;;;7.45;;
47161;SDS011;32921;53.256;8.198;2022-08-14T05:56:24;9.60;;;7.18;;
47161;SDS011;32921;53.256;8.198;2022-08-14T05:58:50;11.75;;;7.35;;
47161;SDS011;32921;53.256;8.198;2022-08-14T06:01:16;9.50;;;6.70;;
47161;SDS011;32921;53.256;8.198;2022-08-14T06:03:42;13.15;;;7.57;;
47161;SDS011;32921;53.256;8.198;2022-08-14T06:06:08;9.52;;;7.53;;
47161;SDS011;32921;53.256;8.198;2022-08-14T06:08:34;12.00;;;7.20;;
47161;SDS011;32921;53.256;8.198;2022-08-14T06:11:00;11.02;;;7.50;;
47161;SDS011;32921;53.256;8.198;2022-08-14T06:13:28;12.68;;;8.05;;
47161;SDS011;32921;53.256;8.198;2022-08-14T06:15:54;16.90;;;7.13;;
47161;SDS011;32921;53.256;8.198;2022-08-14T06:18:20;10.65;;;7.55;;
47161;SDS011;32921;53.256;8.198;2022-08-14T06:20:46;9.82;;;7.78;;
47161;SDS011;32921;53.256;8.198;2022-08-14T06:23:11;14.90;;;7.25;;
47161;SDS011;32921;53.256;8.198;2022-08-14T06:25:37;10.30;;;7.38;;
47161;SDS011;32921;53.256;8.198;2022-08-14T06:28:02;12.55;;;7.45;;
47161;SDS011;32921;53.256;8.198;2022-08-14T06:30:29;7.97;;;6.90;;
47161;SDS011;32921;53.256;8.198;2022-08-14T06:32:57;8.85;;;7.22;;
47161;SDS011;32921;53.256;8.198;2022-08-14T06:35:22;10.32;;;7.50;;
47161;SDS011;32921;53.256;8.198;2022-08-14T06:37:49;11.10;;;7.10;;
47161;SDS011;32921;53.256;8.198;2022-08-14T06:40:18;12.93;;;6.93;;
47161;SDS011;32921;53.256;8.198;2022-08-14T06:42:47;12.32;;;7.60;;
47161;SDS011;32921;53.256;8.198;2022-08-14T06:45:13;10.13;;;6.80;;
47161;SDS011;32921;53.256;8.198;2022-08-14T06:47:40;10.38;;;6.50;;
47161;SDS011;32921;53.256;8.198;2022-08-14T06:50:08;7.57;;;6.07;;
47161;SDS011;32921;53.256;8.198;2022-08-14T06:52:37;9.27;;;6.22;;
47161;SDS011;32921;53.256;8.198;2022-08-14T06:55:04;10.82;;;6.28;;
47161;SDS011;32921;53.256;8.198;2022-08-14T06:57:35;8.02;;;6.13;;
47161;SDS011;32921;53.256;8.198;2022-08-14T07:00:18;9.73;;;6.60;;
47161;SDS011;32921;53.256;8.198;2022-08-14T07:02:48;11.20;;;6.45;;
47161;SDS011;32921;53.256;8.198;2022-08-14T07:05:33;7.57;;;5.90;;
47161;SDS011;32921;53.256;8.198;2022-08-14T07:08:13;11.90;;;6.50;;
47161;SDS011;32921;53.256;8.198;2022-08-14T07:10:39;7.47;;;6.25;;
47161;SDS011;32921;53.256;8.198;2022-08-14T07:13:07;9.90;;;5.78;;
47161;SDS011;32921;53.256;8.198;2022-08-14T07:15:33;7.13;;;5.68;;
47161;SDS011;32921;53.256;8.198;2022-08-14T07:17:59;14.88;;;5.90;;
47161;SDS011;32921;53.256;8.198;2022-08-14T07:20:25;9.23;;;5.65;;
47161;SDS011;32921;53.256;8.198;2022-08-14T07:22:52;8.90;;;5.80;;
47161;SDS011;32921;53.256;8.198;2022-08-14T07:25:22;9.23;;;5.45;;
47161;SDS011;32921;53.256;8.198;2022-08-14T07:27:52;6.43;;;5.20;;
47161;SDS011;32921;53.256;8.198;2022-08-14T07:30:18;8.00;;;5.53;;
47161;SDS011;32921;53.256;8.198;2022-08-14T07:32:44;8.57;;;5.10;;
47161;SDS011;32921;53.256;8.198;2022-08-14T07:35:09;10.63;;;5.90;;
47161;SDS011;32921;53.256;8.198;2022-08-14T07:37:35;9.20;;;5.95;;
47161;SDS011;32921;53.256;8.198;2022-08-14T07:40:02;7.45;;;5.43;;
47161;SDS011;32921;53.256;8.198;2022-08-14T07:42:29;8.40;;;5.10;;
47161;SDS011;32921;53.256;8.198;2022-08-14T07:44:55;9.98;;;5.47;;
47161;SDS011;32921;53.256;8.198;2022-08-14T07:47:20;7.28;;;5.55;;
47161;SDS011;32921;53.256;8.198;2022-08-14T07:50:19;8.82;;;5.60;;
47161;SDS011;32921;53.256;8.198;2022-08-14T07:52:42;9.18;;;5.05;;
47161;SDS011;32921;53.256;8.198;2022-08-14T07:55:09;9.27;;;5.05;;
47161;SDS011;32921;53.256;8.198;2022-08-14T07:57:43;6.18;;;4.90;;
47161;SDS011;32921;53.256;8.198;2022-08-14T08:00:10;6.75;;;4.95;;
47161;SDS011;32921;53.256;8.198;2022-08-14T08:02:42;6.75;;;5.10;;
47161;SDS011;32921;53.256;8.198;2022-08-14T08:05:10;7.00;;;5.30;;
47161;SDS011;32921;53.256;8.198;2022-08-14T08:07:38;5.95;;;4.75;;
47161;SDS011;32921;53.256;8.198;2022-08-14T08:10:06;7.07;;;4.93;;
47161;SDS011;32921;53.256;8.198;2022-08-14T08:13:06;8.20;;;4.68;;
47161;SDS011;32921;53.256;8.198;2022-08-14T08:15:34;7.18;;;4.93;;
47161;SDS011;32921;53.256;8.198;2022-08-14T08:18:05;6.57;;;4.40;;
47161;SDS011;32921;53.256;8.198;2022-08-14T08:20:32;7.15;;;4.80;;
47161;SDS011;32921;53.256;8.198;2022-08-14T08:23:03;6.28;;;4.53;;
47161;SDS011;32921;53.256;8.198;2022-08-14T08:25:31;6.32;;;4.82;;
47161;SDS011;32921;53.256;8.198;2022-08-14T08:27:59;6.93;;;4.80;;
47161;SDS011;32921;53.256;8.198;2022-08-14T08:30:28;8.98;;;4.82;;
47161;SDS011;32921;53.256;8.198;2022-08-14T08:32:56;6.53;;;4.78;;
47161;SDS011;32921;53.256;8.198;2022-08-14T08:35:26;6.57;;;4.70;;
47161;SDS011;32921;53.256;8.198;2022-08-14T08:37:54;7.78;;;4.30;;
47161;SDS011;32921;53.256;8.198;2022-08-14T08:40:26;7.25;;;4.78;;
47161;SDS011;32921;53.256;8.198;2022-08-14T08:43:00;7.82;;;4.93;;
47161;SDS011;32921;53.256;8.198;2022-08-14T08:45:33;11.15;;;4.93;;
47161;SDS011;32921;53.256;8.198;2022-08-14T08:48:00;7.00;;;5.30;;
47161;SDS011;32921;53.256;8.198;2022-08-14T08:50:32;8.05;;;5.03;;
47161;SDS011;32921;53.256;8.198;2022-08-14T08:53:04;8.90;;;4.90;;
47161;SDS011;32921;53.256;8.198;2022-08-14T08:58:01;7.93;;;5.07;;
47161;SDS011;32921;53.256;8.198;2022-08-14T09:00:29;6.65;;;4.80;;
47161;SDS011;32921;53.256;8.198;2022-08-14T09:03:03;7.68;;;4.93;;
47161;SDS011;32921;53.256;8.198;2022-08-14T09:05:37;7.43;;;4.90;;
47161;SDS011;32921;53.256;8.198;2022-08-14T09:08:18;6.68;;;5.15;;
47161;SDS011;32921;53.256;8.198;2022-08-14T09:10:46;8.68;;;5.18;;
47161;SDS011;32921;53.256;8.198;2022-08-14T09:13:12;7.30;;;4.68;;
47161;SDS011;32921;53.256;8.198;2022-08-14T09:15:40;6.22;;;4.78;;
47161;SDS011;32921;53.256;8.198;2022-08-14T09:18:08;9.80;;;4.95;;
47161;SDS011;32921;53.256;8.198;2022-08-14T09:20:34;9.32;;;5.10;;
47161;SDS011;32921;53.256;8.198;2022-08-14T09:23:02;8.65;;;5.32;;
47161;SDS011;32921;53.256;8.198;2022-08-14T09:25:29;7.93;;;5.35;;
47161;SDS011;32921;53.256;8.198;2022-08-14T09:27:55;8.55;;;5.15;;
47161;SDS011;32921;53.256;8.198;2022-08-14T09:30:21;8.80;;;5.45;;
47161;SDS011;32921;53.256;8.198;2022-08-14T09:38:37;6.80;;;5.30;;
47161;SDS011;32921;53.256;8.198;2022-08-14T09:41:21;7.85;;;5.55;;
47161;SDS011;32921;53.256;8.198;2022-08-14T09:43:58;8.73;;;5.63;;
47161;SDS011;32921;53.256;8.198;2022-08-14T09:46:35;13.02;;;5.40;;
47161;SDS011;32921;53.256;8.198;2022-08-14T09:49:01;6.65;;;5.53;;
47161;SDS011;32921;53.256;8.198;2022-08-14T09:51:29;7.80;;;5.60;;
47161;SDS011;32921;53.256;8.198;2022-08-14T09:54:00;7.70;;;5.47;;
47161;SDS011;32921;53.256;8.198;2022-08-14T09:56:48;6.35;;;5.47;;
47161;SDS011;32921;53.256;8.198;2022-08-14T09:59:16;6.78;;;4.82;;
47161;SDS011;32921;53.256;8.198;2022-08-14T10:01:46;8.45;;;5.05;;
47161;SDS011;32921;53.256;8.198;2022-08-14T10:04:20;7.30;;;5.22;;
47161;SDS011;32921;53.256;8.198;2022-08-14T10:06:49;9.20;;;5.30;;
47161;SDS011;32921;53.256;8.198;2022-08-14T10:09:15;8.30;;;5.22;;
47161;SDS011;32921;53.256;8.198;2022-08-14T10:11:52;10.15;;;5.07;;
47161;SDS011;32921;53.256;8.198;2022-08-14T10:14:20;9.35;;;5.20;;
47161;SDS011;32921;53.256;8.198;2022-08-14T10:16:53;9.70;;;4.55;;
47161;SDS011;32921;53.256;8.198;2022-08-14T10:19:24;7.28;;;4.78;;
47161;SDS011;32921;53.256;8.198;2022-08-14T10:22:03;7.60;;;5.18;;
47161;SDS011;32921;53.256;8.198;2022-08-14T10:24:38;10.88;;;5.55;;
47161;SDS011;32921;53.256;8.198;2022-08-14T10:27:18;8.57;;;5.78;;
47161;SDS011;32921;53.256;8.198;2022-08-14T10:32:16;8.50;;;5.13;;
47161;SDS011;32921;53.256;8.198;2022-08-14T10:34:41;11.30;;;5.65;;
47161;SDS011;32921;53.256;8.198;2022-08-14T10:37:08;8.32;;;5.68;;
47161;SDS011;32921;53.256;8.198;2022-08-14T10:39:36;6.32;;;4.95;;
47161;SDS011;32921;53.256;8.198;2022-08-14T10:42:14;11.52;;;5.03;;
47161;SDS011;32921;53.256;8.198;2022-08-14T10:44:40;7.32;;;4.95;;
47161;SDS011;32921;53.256;8.198;2022-08-14T10:47:11;7.32;;;4.53;;
47161;SDS011;32921;53.256;8.198;2022-08-14T10:49:42;7.00;;;4.80;;
47161;SDS011;32921;53.256;8.198;2022-08-14T10:52:22;7.45;;;4.60;;
47161;SDS011;32921;53.256;8.198;2022-08-14T10:54:49;7.15;;;5.10;;
47161;SDS011;32921;53.256;8.198;2022-08-14T10:59:56;8.82;;;5.20;;
47161;SDS011;32921;53.256;8.198;2022-08-14T11:02:30;7.45;;;5.10;;
47161;SDS011;32921;53.256;8.198;2022-08-14T11:05:12;7.05;;;4.97;;
47161;SDS011;32921;53.256;8.198;2022-08-14T11:07:40;7.38;;;4.65;;
47161;SDS011;32921;53.256;8.198;2022-08-14T11:10:18;11.73;;;4.75;;
47161;SDS011;32921;53.256;8.198;2022-08-14T11:12:45;8.32;;;4.95;;
47161;SDS011;32921;53.256;8.198;2022-08-14T11:15:14;6.45;;;4.70;;
47161;SDS011;32921;53.256;8.198;2022-08-14T11:17:45;7.97;;;5.22;;
47161;SDS011;32921;53.256;8.198;2022-08-14T11:20:13;7.68;;;4.75;;
47161;SDS011;32921;53.256;8.198;2022-08-14T11:22:40;6.22;;;4.82;;
47161;SDS011;32921;53.256;8.198;2022-08-14T11:25:07;6.90;;;5.03;;
47161;SDS011;32921;53.256;8.198;2022-08-14T11:27:39;9.10;;;5.15;;
47161;SDS011;32921;53.256;8.198;2022-08-14T11:30:08;11.88;;;4.95;;
47161;SDS011;32921;53.256;8.198;2022-08-14T11:32:37;9.23;;;5.15;;
47161;SDS011;32921;53.256;8.198;2022-08-14T11:35:13;12.50;;;5.40;;
47161;SDS011;32921;53.256;8.198;2022-08-14T11:37:53;9.30;;;5.45;;
47161;SDS011;32921;53.256;8.198;2022-08-14T11:40:21;8.45;;;5.68;;
47161;SDS011;32921;53.256;8.198;2022-08-14T11:42:50;8.30;;;5.65;;
47161;SDS011;32921;53.256;8.198;2022-08-14T11:45:29;7.47;;;5.25;;
47161;SDS011;32921;53.256;8.198;2022-08-14T11:48:12;9.00;;;5.35;;
47161;SDS011;32921;53.256;8.198;2022-08-14T11:50:46;7.10;;;5.40;;
47161;SDS011;32921;53.256;8.198;2022-08-14T11:53:22;8.45;;;4.97;;
47161;SDS011;32921;53.256;8.198;2022-08-14T11:56:00;10.02;;;5.25;;
47161;SDS011;32921;53.256;8.198;2022-08-14T11:58:35;7.43;;;5.03;;
47161;SDS011;32921;53.256;8.198;2022-08-14T12:01:04;6.93;;;4.93;;
47161;SDS011;32921;53.256;8.198;2022-08-14T12:03:44;7.47;;;4.75;;
47161;SDS011;32921;53.256;8.198;2022-08-14T12:06:13;8.30;;;4.82;;
47161;SDS011;32921;53.256;8.198;2022-08-14T12:08:41;8.10;;;4.57;;
47161;SDS011;32921;53.256;8.198;2022-08-14T12:11:08;10.93;;;5.13;;
47161;SDS011;32921;53.256;8.198;2022-08-14T12:13:38;7.25;;;4.68;;
47161;SDS011;32921;53.256;8.198;2022-08-14T12:16:09;9.27;;;5.07;;
47161;SDS011;32921;53.256;8.198;2022-08-14T12:18:40;9.88;;;4.82;;
47161;SDS011;32921;53.256;8.198;2022-08-14T12:21:12;6.88;;;4.65;;
47161;SDS011;32921;53.256;8.198;2022-08-14T12:23:38;7.18;;;4.30;;
47161;SDS011;32921;53.256;8.198;2022-08-14T12:26:06;8.35;;;4.80;;
47161;SDS011;32921;53.256;8.198;2022-08-14T12:28:33;10.82;;;5.53;;
47161;SDS011;32921;53.256;8.198;2022-08-14T12:30:59;7.13;;;4.70;;
47161;SDS011;32921;53.256;8.198;2022-08-14T12:33:35;7.00;;;4.70;;
47161;SDS011;32921;53.256;8.198;2022-08-14T12:36:02;5.90;;;4.55;;
47161;SDS011;32921;53.256;8.198;2022-08-14T12:38:41;9.57;;;5.20;;
47161;SDS011;32921;53.256;8.198;2022-08-14T12:41:10;7.90;;;4.57;;
47161;SDS011;32921;53.256;8.198;2022-08-14T12:43:50;7.03;;;4.40;;
47161;SDS011;32921;53.256;8.198;2022-08-14T12:48:52;7.43;;;4.68;;
47161;SDS011;32921;53.256;8.198;2022-08-14T12:51:21;5.93;;;4.22;;
47161;SDS011;32921;53.256;8.198;2022-08-14T12:53:49;8.20;;;4.28;;
47161;SDS011;32921;53.256;8.198;2022-08-14T12:56:18;7.13;;;4.15;;
47161;SDS011;32921;53.256;8.198;2022-08-14T12:58:47;8.48;;;4.47;;
47161;SDS011;32921;53.256;8.198;2022-08-14T13:01:25;6.75;;;4.45;;
47161;SDS011;32921;53.256;8.198;2022-08-14T13:04:05;7.53;;;4.50;;
47161;SDS011;32921;53.256;8.198;2022-08-14T13:08:59;6.53;;;4.20;;
47161;SDS011;32921;53.256;8.198;2022-08-14T13:11:26;7.30;;;4.20;;
47161;SDS011;32921;53.256;8.198;2022-08-14T13:14:00;12.40;;;4.78;;
47161;SDS011;32921;53.256;8.198;2022-08-14T13:16:28;9.43;;;4.18;;
47161;SDS011;32921;53.256;8.198;2022-08-14T13:18:55;7.75;;;4.38;;
47161;SDS011;32921;53.256;8.198;2022-08-14T13:21:26;5.85;;;3.95;;
47161;SDS011;32921;53.256;8.198;2022-08-14T13:23:55;7.30;;;4.35;;
47161;SDS011;32921;53.256;8.198;2022-08-14T13:26:23;7.53;;;4.30;;
47161;SDS011;32921;53.256;8.198;2022-08-14T13:28:50;7.05;;;4.28;;
47161;SDS011;32921;53.256;8.198;2022-08-14T13:31:17;6.10;;;4.50;;
47161;SDS011;32921;53.256;8.198;2022-08-14T13:33:47;7.15;;;4.13;;
47161;SDS011;32921;53.256;8.198;2022-08-14T13:36:13;7.45;;;3.95;;
47161;SDS011;32921;53.256;8.198;2022-08-14T13:38:41;8.35;;;4.57;;
47161;SDS011;32921;53.256;8.198;2022-08-14T13:41:08;6.90;;;4.50;;
47161;SDS011;32921;53.256;8.198;2022-08-14T13:43:35;6.15;;;4.25;;
47161;SDS011;32921;53.256;8.198;2022-08-14T13:46:05;7.32;;;4.20;;
47161;SDS011;32921;53.256;8.198;2022-08-14T13:48:31;10.43;;;4.70;;
47161;SDS011;32921;53.256;8.198;2022-08-14T13:50:57;7.93;;;4.70;;
47161;SDS011;32921;53.256;8.198;2022-08-14T13:53:24;8.93;;;4.60;;
47161;SDS011;32921;53.256;8.198;2022-08-14T13:55:52;7.70;;;4.65;;
47161;SDS011;32921;53.256;8.198;2022-08-14T13:58:19;7.10;;;4.80;;
47161;SDS011;32921;53.256;8.198;2022-08-14T14:00:49;8.90;;;4.68;;
47161;SDS011;32921;53.256;8.198;2022-08-14T14:03:17;7.95;;;4.78;;
47161;SDS011;32921;53.256;8.198;2022-08-14T14:05:44;11.13;;;5.07;;
47161;SDS011;32921;53.256;8.198;2022-08-14T14:08:15;8.60;;;4.75;;
47161;SDS011;32921;53.256;8.198;2022-08-14T14:10:43;8.00;;;4.40;;
47161;SDS011;32921;53.256;8.198;2022-08-14T14:13:13;10.27;;;4.82;;
47161;SDS011;32921;53.256;8.198;2022-08-14T14:15:40;7.77;;;4.40;;
47161;SDS011;32921;53.256;8.198;2022-08-14T14:18:06;8.38;;;4.43;;
47161;SDS011;32921;53.256;8.198;2022-08-14T14:20:32;9.50;;;4.57;;
47161;SDS011;32921;53.256;8.198;2022-08-14T14:22:58;7.40;;;4.50;;
47161;SDS011;32921;53.256;8.198;2022-08-14T14:25:25;10.15;;;4.68;;
47161;SDS011;32921;53.256;8.198;2022-08-14T14:27:51;8.50;;;4.57;;
47161;SDS011;32921;53.256;8.198;2022-08-14T14:30:20;7.63;;;4.70;;
47161;SDS011;32921;53.256;8.198;2022-08-14T14:32:47;7.30;;;4.72;;
47161;SDS011;32921;53.256;8.198;2022-08-14T14:35:14;11.32;;;4.90;;
47161;SDS011;32921;53.256;8.198;2022-08-14T14:37:43;9.70;;;4.75;;
47161;SDS011;32921;53.256;8.198;2022-08-14T14:40:11;7.25;;;4.63;;
47161;SDS011;32921;53.256;8.198;2022-08-14T14:42:44;9.98;;;5.00;;
47161;SDS011;32921;53.256;8.198;2022-08-14T14:45:14;6.82;;;4.88;;
47161;SDS011;32921;53.256;8.198;2022-08-14T14:47:44;8.80;;;5.00;;
47161;SDS011;32921;53.256;8.198;2022-08-14T14:50:11;10.65;;;4.82;;
47161;SDS011;32921;53.256;8.198;2022-08-14T14:52:38;12.27;;;4.82;;
47161;SDS011;32921;53.256;8.198;2022-08-14T14:55:04;6.25;;;4.70;;
47161;SDS011;32921;53.256;8.198;2022-08-14T14:57:31;7.60;;;4.97;;
47161;SDS011;32921;53.256;8.198;2022-08-14T14:59:57;8.40;;;4.70;;
47161;SDS011;32921;53.256;8.198;2022-08-14T15:02:33;10.50;;;4.68;;
47161;SDS011;32921;53.256;8.198;2022-08-14T15:05:01;10.27;;;4.75;;
47161;SDS011;32921;53.256;8.198;2022-08-14T15:07:29;7.65;;;5.10;;
47161;SDS011;32921;53.256;8.198;2022-08-14T15:09:56;7.72;;;4.90;;
47161;SDS011;32921;53.256;8.198;2022-08-14T15:12:22;8.00;;;4.90;;
47161;SDS011;32921;53.256;8.198;2022-08-14T15:14:48;7.25;;;5.20;;
47161;SDS011;32921;53.256;8.198;2022-08-14T15:17:13;10.18;;;5.30;;